Time;durP1;ratioP1;P1;durP2;ratioP2;P2;SDS_P1;SDS_P2;PMS_P1;PMS_P2;Temp;Humidity;BMP_temperature;BMP_pressure;BME280_temperature;BME280_humidity;BME280_pressure;Samples;Min_cycle;Max_cycle;Signal;HPM_P1;HPM_P2
2023/11/26 00:00:27;;;;;;;16.38;10.85;;;1.80;99.90;;;;;;4985448;28;20043;-74
2023/11/26 00:02:53;;;;;;;15.15;11.00;;;1.80;99.90;;;;;;5007463;28;20045;-74
2023/11/26 00:05:19;;;;;;;11.80;8.82;;;1.80;99.90;;;;;;4993485;28;20041;-74
2023/11/26 00:07:45;;;;;;;13.70;9.02;;;1.80;99.90;;;;;;4977564;28;20449;-74
2023/11/26 00:10:10;;;;;;;11.65;7.80;;;1.70;99.90;;;;;;5005194;28;20041;-74
2023/11/26 00:12:36;;;;;;;10.15;7.72;;;1.70;99.90;;;;;;4996339;28;20139;-74
2023/11/26 00:15:03;;;;;;;10.65;6.88;;;1.60;99.90;;;;;;4989134;28;20472;-74
2023/11/26 00:17:32;;;;;;;8.82;6.75;;;1.60;99.90;;;;;;4989512;28;20053;-74
2023/11/26 00:19:58;;;;;;;21.65;12.20;;;1.50;99.90;;;;;;4990984;28;20045;-75
2023/11/26 00:22:28;;;;;;;22.85;14.13;;;1.50;99.90;;;;;;4998450;28;20056;-76
2023/11/26 00:24:53;;;;;;;22.70;12.27;;;1.50;99.90;;;;;;5005491;28;20049;-75
2023/11/26 00:27:19;;;;;;;21.17;11.48;;;1.50;99.90;;;;;;4994816;28;20304;-74
2023/11/26 00:29:45;;;;;;;20.58;11.82;;;1.40;99.90;;;;;;5001034;28;20072;-74
2023/11/26 00:32:11;;;;;;;21.38;14.05;;;1.40;99.90;;;;;;5006341;28;20519;-75
2023/11/26 00:34:37;;;;;;;17.23;11.77;;;1.40;99.90;;;;;;4987711;28;20067;-76
2023/11/26 00:37:03;;;;;;;16.55;11.98;;;1.40;99.90;;;;;;4990316;28;20439;-74
2023/11/26 00:39:29;;;;;;;17.63;12.13;;;1.30;99.90;;;;;;5004932;28;20114;-74
2023/11/26 00:41:55;;;;;;;12.98;10.05;;;1.30;99.90;;;;;;5011642;28;20041;-73
2023/11/26 00:44:25;;;;;;;15.02;10.98;;;1.30;99.90;;;;;;4993946;28;20034;-75
2023/11/26 00:46:54;;;;;;;12.00;9.80;;;1.30;99.90;;;;;;4992947;28;20319;-75
2023/11/26 00:49:20;;;;;;;12.75;9.05;;;1.30;99.90;;;;;;4980483;28;20586;-76
2023/11/26 00:51:46;;;;;;;10.35;7.28;;;1.40;99.90;;;;;;5004636;28;20507;-75
2023/11/26 00:54:12;;;;;;;8.35;6.07;;;1.40;99.90;;;;;;5002648;28;20037;-75
2023/11/26 00:56:38;;;;;;;9.00;6.80;;;1.40;99.90;;;;;;4987191;28;20060;-75
2023/11/26 00:59:04;;;;;;;10.18;6.97;;;1.50;99.90;;;;;;4984240;28;20029;-76
2023/11/26 01:01:29;;;;;;;8.50;7.10;;;1.50;99.90;;;;;;5001830;28;20545;-76
2023/11/26 01:03:55;;;;;;;8.25;6.55;;;1.60;99.90;;;;;;5004973;28;20052;-75
2023/11/26 01:06:22;;;;;;;8.63;7.63;;;1.60;99.90;;;;;;5003887;28;20132;-75
2023/11/26 01:08:48;;;;;;;10.20;6.80;;;1.60;99.90;;;;;;4999240;28;20054;-75
2023/11/26 01:11:14;;;;;;;10.57;7.25;;;1.60;99.90;;;;;;4990210;28;20587;-75
2023/11/26 01:13:43;;;;;;;7.80;7.00;;;1.60;99.90;;;;;;4988443;28;20123;-75
2023/11/26 01:16:09;;;;;;;10.10;7.13;;;1.60;99.90;;;;;;4977500;28;20060;-75
2023/11/26 01:18:38;;;;;;;11.90;7.57;;;1.60;99.90;;;;;;4981659;28;20523;-75
2023/11/26 01:21:04;;;;;;;10.75;7.30;;;1.60;99.90;;;;;;5000339;28;20041;-75
2023/11/26 01:23:29;;;;;;;12.45;8.75;;;1.60;99.90;;;;;;4989170;28;20405;-75
2023/11/26 01:25:55;;;;;;;11.02;8.35;;;1.60;99.90;;;;;;4999454;28;20069;-75
2023/11/26 01:28:21;;;;;;;8.85;7.43;;;1.60;99.90;;;;;;5006068;28;20050;-75
2023/11/26 01:30:47;;;;;;;10.25;7.35;;;1.70;99.90;;;;;;5007010;28;20117;-75
2023/11/26 01:33:13;;;;;;;11.60;7.82;;;1.70;99.90;;;;;;5005613;28;20445;-75
2023/11/26 01:35:38;;;;;;;9.40;8.18;;;1.80;99.90;;;;;;4992232;28;20086;-75
2023/11/26 01:38:04;;;;;;;12.05;8.73;;;1.80;99.90;;;;;;4992379;28;20136;-75
2023/11/26 01:40:37;;;;;;;12.57;8.43;;;1.80;99.90;;;;;;4997930;28;20044;-73
2023/11/26 01:43:03;;;;;;;9.13;7.95;;;1.90;99.90;;;;;;4990557;28;20141;-74
2023/11/26 01:45:29;;;;;;;9.93;8.48;;;1.90;99.90;;;;;;5004710;28;20128;-73
2023/11/26 01:47:55;;;;;;;13.32;8.82;;;1.90;99.90;;;;;;5010671;28;20569;-73
2023/11/26 01:50:23;;;;;;;10.25;7.68;;;1.90;99.90;;;;;;5006736;28;20041;-75
2023/11/26 01:52:50;;;;;;;10.02;7.95;;;2.00;99.90;;;;;;5010300;28;20439;-76
2023/11/26 01:55:18;;;;;;;9.50;7.00;;;2.00;99.90;;;;;;5004621;28;20068;-75
2023/11/26 01:57:47;;;;;;;8.65;6.72;;;2.10;99.90;;;;;;4990286;28;20056;-76
2023/11/26 02:00:16;;;;;;;14.00;9.07;;;2.10;99.90;;;;;;4987283;28;20483;-75
2023/11/26 02:02:42;;;;;;;10.40;8.00;;;2.10;99.90;;;;;;4999193;28;20717;-75
2023/11/26 02:05:12;;;;;;;12.07;7.95;;;2.10;99.90;;;;;;5005199;28;20102;-76
2023/11/26 02:07:39;;;;;;;10.85;7.43;;;2.20;99.90;;;;;;4997956;28;20069;-75
2023/11/26 02:10:09;;;;;;;10.85;8.00;;;2.20;99.90;;;;;;4990308;28;20124;-76
2023/11/26 02:12:35;;;;;;;11.35;6.68;;;2.20;99.90;;;;;;4988006;28;20041;-75
2023/11/26 02:15:02;;;;;;;16.65;9.75;;;2.20;99.90;;;;;;5003818;28;20076;-74
2023/11/26 02:17:28;;;;;;;16.25;11.18;;;2.30;99.90;;;;;;5008829;28;20661;-74
2023/11/26 02:19:56;;;;;;;12.98;8.40;;;2.30;99.90;;;;;;4998646;28;20041;-74
2023/11/26 02:22:22;;;;;;;9.77;7.65;;;2.30;99.90;;;;;;5008590;28;20124;-73
2023/11/26 02:24:48;;;;;;;10.88;8.20;;;2.30;99.90;;;;;;5007864;28;20841;-75
2023/11/26 02:27:14;;;;;;;19.17;10.70;;;2.40;99.90;;;;;;4983843;28;20102;-75
2023/11/26 02:29:40;;;;;;;13.70;8.88;;;2.40;99.90;;;;;;5007403;28;20064;-76
2023/11/26 02:32:09;;;;;;;11.90;9.13;;;2.50;99.90;;;;;;4989032;28;20140;-76
2023/11/26 02:34:36;;;;;;;12.75;10.88;;;2.50;99.90;;;;;;4988487;28;20053;-76
2023/11/26 02:37:02;;;;;;;15.80;11.65;;;2.50;99.90;;;;;;4995904;28;20053;-76
2023/11/26 02:39:30;;;;;;;30.15;17.38;;;2.50;99.90;;;;;;4989837;28;20094;-76
2023/11/26 02:41:58;;;;;;;19.50;16.70;;;2.60;99.90;;;;;;4997851;28;20541;-76
2023/11/26 02:44:24;;;;;;;25.08;21.80;;;2.50;99.90;;;;;;4985870;28;20219;-77
2023/11/26 02:46:50;;;;;;;21.77;19.55;;;2.50;99.90;;;;;;5005910;28;20211;-76
2023/11/26 02:49:15;;;;;;;26.73;23.92;;;2.50;99.90;;;;;;5003071;28;20052;-76
2023/11/26 02:51:42;;;;;;;28.75;24.83;;;2.40;99.90;;;;;;4993736;28;20587;-76
2023/11/26 02:54:08;;;;;;;27.77;24.88;;;2.30;99.90;;;;;;4993420;28;20527;-76
2023/11/26 02:56:34;;;;;;;27.85;24.95;;;2.30;99.90;;;;;;4994019;28;20046;-76
2023/11/26 02:59:00;;;;;;;28.05;25.20;;;2.30;99.90;;;;;;5002631;28;20065;-76
2023/11/26 03:01:29;;;;;;;32.95;29.45;;;2.30;99.90;;;;;;5000782;28;20093;-76
2023/11/26 03:03:58;;;;;;;32.35;29.45;;;2.30;99.90;;;;;;4987824;28;20132;-76
2023/11/26 03:06:26;;;;;;;30.27;27.48;;;2.30;99.90;;;;;;5005103;28;20064;-76
2023/11/26 03:09:09;;;;;;;28.98;25.92;;;2.30;99.90;;;;;;4992737;28;20067;-74
2023/11/26 03:14:20;;;;;;;18.95;16.95;;;2.30;99.90;;;;;;5001739;28;20594;-74
2023/11/26 03:16:46;;;;;;;18.90;15.93;;;2.30;99.90;;;;;;5003243;28;20037;-74
2023/11/26 03:19:13;;;;;;;17.42;14.80;;;2.40;99.90;;;;;;5008738;28;20224;-74
2023/11/26 03:21:44;;;;;;;15.13;13.63;;;2.30;99.90;;;;;;4997276;28;20129;-73
2023/11/26 03:24:11;;;;;;;18.88;12.70;;;2.40;99.90;;;;;;4992100;28;20057;-74
2023/11/26 03:26:36;;;;;;;17.73;12.52;;;2.30;99.90;;;;;;5002917;28;20056;-74
2023/11/26 03:29:02;;;;;;;12.63;10.77;;;2.30;99.90;;;;;;5018571;28;20045;-74
2023/11/26 03:31:30;;;;;;;14.73;12.07;;;2.30;99.90;;;;;;5004859;28;20079;-74
2023/11/26 03:33:57;;;;;;;13.93;10.60;;;2.30;99.90;;;;;;4989211;28;20049;-74
2023/11/26 03:36:23;;;;;;;12.68;10.77;;;2.30;99.90;;;;;;4991530;28;20081;-74
2023/11/26 03:38:49;;;;;;;13.40;10.68;;;2.20;99.90;;;;;;5005872;28;20526;-74
2023/11/26 03:41:14;;;;;;;12.93;9.40;;;2.30;99.90;;;;;;4994292;28;20054;-74
2023/11/26 03:43:40;;;;;;;12.70;9.63;;;2.20;99.90;;;;;;5004506;28;20042;-74
2023/11/26 03:46:06;;;;;;;12.63;8.98;;;2.20;99.90;;;;;;4994393;28;20365;-74
2023/11/26 03:48:32;;;;;;;22.60;14.02;;;2.30;99.90;;;;;;4989315;28;20069;-74
2023/11/26 03:50:58;;;;;;;18.73;12.93;;;2.20;99.90;;;;;;5000458;28;20038;-76
2023/11/26 03:53:24;;;;;;;16.35;11.20;;;2.20;99.90;;;;;;5001126;28;20053;-74
2023/11/26 03:55:50;;;;;;;11.32;8.85;;;2.10;99.90;;;;;;5004398;28;20124;-74
2023/11/26 03:58:16;;;;;;;13.15;9.10;;;2.10;99.90;;;;;;5002366;28;20137;-74
2023/11/26 04:00:45;;;;;;;14.95;9.60;;;2.10;99.90;;;;;;5006291;28;20050;-74
2023/11/26 04:03:10;;;;;;;22.02;13.15;;;2.10;99.90;;;;;;4992020;28;20515;-74
2023/11/26 04:05:36;;;;;;;19.90;12.95;;;2.10;99.90;;;;;;5013661;28;20068;-74
2023/11/26 04:08:02;;;;;;;19.58;13.27;;;2.10;99.90;;;;;;4992315;28;20996;-74
2023/11/26 04:10:28;;;;;;;13.52;9.70;;;2.10;99.90;;;;;;5008292;28;20542;-74
2023/11/26 04:12:56;;;;;;;14.18;8.90;;;2.10;99.90;;;;;;5006963;28;20125;-74
2023/11/26 04:15:26;;;;;;;17.40;12.57;;;2.20;99.90;;;;;;5009718;28;20049;-74
2023/11/26 04:17:55;;;;;;;10.35;8.18;;;2.20;99.90;;;;;;5008899;28;20053;-74
2023/11/26 04:20:22;;;;;;;13.73;10.25;;;2.20;99.90;;;;;;5002867;28;20045;-74
2023/11/26 04:22:48;;;;;;;11.77;8.10;;;2.20;99.90;;;;;;4992400;28;20100;-74
2023/11/26 04:25:14;;;;;;;13.38;7.63;;;2.20;99.90;;;;;;4989001;28;20041;-74
2023/11/26 04:27:40;;;;;;;12.65;7.72;;;2.20;99.90;;;;;;5003652;28;20037;-74
2023/11/26 04:30:08;;;;;;;9.75;6.57;;;2.30;99.90;;;;;;4991979;28;20594;-74
2023/11/26 04:32:33;;;;;;;12.57;6.90;;;2.30;99.90;;;;;;5007169;28;20854;-74
2023/11/26 04:35:00;;;;;;;9.85;6.50;;;2.30;99.90;;;;;;5012566;28;20041;-74
2023/11/26 04:37:25;;;;;;;9.10;6.97;;;2.30;99.90;;;;;;5009152;28;20052;-74
2023/11/26 04:39:54;;;;;;;14.63;6.07;;;2.30;99.90;;;;;;5005681;28;20518;-74
2023/11/26 04:42:21;;;;;;;10.43;5.20;;;2.20;99.90;;;;;;5007752;28;20079;-74
2023/11/26 04:44:46;;;;;;;14.02;4.15;;;2.30;99.90;;;;;;5008096;28;20057;-74
2023/11/26 04:47:12;;;;;;;11.55;3.05;;;2.30;99.90;;;;;;5006156;28;20476;-74
2023/11/26 04:49:38;;;;;;;11.93;3.33;;;2.30;99.90;;;;;;4997026;28;20041;-74
2023/11/26 04:52:05;;;;;;;14.38;3.40;;;2.40;99.90;;;;;;4988933;28;20173;-74
2023/11/26 04:54:31;;;;;;;9.45;3.15;;;2.30;99.90;;;;;;5017174;28;20053;-74
2023/11/26 04:56:56;;;;;;;6.95;2.42;;;2.40;99.90;;;;;;5000597;28;20053;-76
2023/11/26 04:59:23;;;;;;;8.18;2.58;;;2.40;99.90;;;;;;4990766;28;20073;-74
2023/11/26 05:01:54;;;;;;;10.50;2.60;;;2.40;99.90;;;;;;5007597;28;20102;-74
2023/11/26 05:04:20;;;;;;;11.23;2.67;;;2.40;99.90;;;;;;5006452;28;20058;-74
2023/11/26 05:06:45;;;;;;;10.95;2.53;;;2.40;99.90;;;;;;4995217;28;20044;-74
2023/11/26 05:09:12;;;;;;;12.25;2.47;;;2.40;99.90;;;;;;5009237;28;20379;-74
2023/11/26 05:11:41;;;;;;;11.07;2.28;;;2.40;99.90;;;;;;4989176;28;20045;-74
2023/11/26 05:14:07;;;;;;;11.50;2.58;;;2.50;99.90;;;;;;5007616;28;20052;-75
2023/11/26 05:16:33;;;;;;;10.18;2.38;;;2.50;99.90;;;;;;4989872;28;20037;-74
2023/11/26 05:18:59;;;;;;;5.80;1.70;;;2.50;99.90;;;;;;5007957;28;20492;-74
2023/11/26 05:21:25;;;;;;;7.60;2.10;;;2.60;99.90;;;;;;5012938;28;20042;-74
2023/11/26 05:23:50;;;;;;;7.53;1.80;;;2.60;99.90;;;;;;4992053;28;20454;-74
2023/11/26 05:26:19;;;;;;;7.25;1.85;;;2.70;99.90;;;;;;4992686;28;20048;-74
2023/11/26 05:28:45;;;;;;;7.15;1.92;;;2.60;99.90;;;;;;4987491;28;20037;-74
2023/11/26 05:31:11;;;;;;;10.98;2.63;;;2.70;99.90;;;;;;4989568;28;20124;-74
2023/11/26 05:33:38;;;;;;;8.73;2.10;;;2.60;99.90;;;;;;5006572;28;20128;-73
2023/11/26 05:36:05;;;;;;;6.28;1.90;;;2.70;99.90;;;;;;5000404;28;20508;-76
2023/11/26 05:38:31;;;;;;;12.82;1.95;;;2.80;99.90;;;;;;4989824;28;20048;-76
2023/11/26 05:40:58;;;;;;;16.75;2.60;;;2.90;99.90;;;;;;5000646;28;20065;-74
2023/11/26 05:43:25;;;;;;;10.80;2.13;;;2.90;99.90;;;;;;4992799;28;20465;-76
2023/11/26 05:45:54;;;;;;;9.98;1.80;;;3.00;99.90;;;;;;5001261;28;20087;-76
2023/11/26 05:48:20;;;;;;;11.82;2.08;;;3.00;99.90;;;;;;5013781;28;20048;-76
2023/11/26 05:50:46;;;;;;;10.98;2.35;;;3.10;99.90;;;;;;5005570;28;20109;-73
2023/11/26 05:53:12;;;;;;;12.85;2.15;;;3.20;99.90;;;;;;5007029;28;20560;-74
2023/11/26 05:55:38;;;;;;;11.48;1.70;;;3.20;99.90;;;;;;5011454;28;20572;-74
2023/11/26 05:58:04;;;;;;;10.13;1.85;;;3.30;99.90;;;;;;5005507;28;20132;-74
2023/11/26 06:00:30;;;;;;;11.85;2.13;;;3.40;99.90;;;;;;5010484;28;20061;-74
2023/11/26 06:02:56;;;;;;;12.15;2.20;;;3.40;99.90;;;;;;4990452;28;20665;-74
2023/11/26 06:05:25;;;;;;;12.85;1.88;;;3.40;99.90;;;;;;5009491;28;20120;-76
2023/11/26 06:07:50;;;;;;;11.48;2.03;;;3.40;99.90;;;;;;5007237;28;20151;-76
2023/11/26 06:10:16;;;;;;;10.13;1.88;;;3.50;99.90;;;;;;5001866;28;20042;-76
2023/11/26 06:12:42;;;;;;;12.45;1.88;;;3.50;99.90;;;;;;5010405;28;20045;-76
2023/11/26 06:15:08;;;;;;;12.57;1.98;;;3.50;99.90;;;;;;4989475;28;20046;-76
2023/11/26 06:17:37;;;;;;;10.88;2.00;;;3.50;99.90;;;;;;4993483;28;20103;-74
2023/11/26 06:20:03;;;;;;;10.68;2.00;;;3.50;99.90;;;;;;4987969;28;20507;-74
2023/11/26 06:22:29;;;;;;;9.38;1.50;;;3.50;99.90;;;;;;5003627;28;20041;-74
2023/11/26 06:24:55;;;;;;;14.88;2.05;;;3.50;99.90;;;;;;5007152;28;20399;-74
2023/11/26 06:27:20;;;;;;;11.05;2.00;;;3.50;99.90;;;;;;5010838;28;20045;-74
2023/11/26 06:29:46;;;;;;;12.70;2.13;;;3.50;99.90;;;;;;5000019;28;20037;-74
2023/11/26 06:32:12;;;;;;;12.88;2.50;;;3.60;99.90;;;;;;5009275;28;20551;-74
2023/11/26 06:34:38;;;;;;;12.55;2.17;;;3.60;99.90;;;;;;4988273;28;20124;-74
2023/11/26 06:37:05;;;;;;;10.32;2.00;;;3.60;99.90;;;;;;5004393;28;20184;-74
2023/11/26 06:39:30;;;;;;;12.95;2.17;;;3.60;99.90;;;;;;5004221;28;20654;-74
2023/11/26 06:41:56;;;;;;;13.82;2.35;;;3.70;99.90;;;;;;5001824;28;20120;-74
2023/11/26 06:44:22;;;;;;;11.50;2.00;;;3.70;99.90;;;;;;5004556;28;20103;-74
2023/11/26 06:46:54;;;;;;;12.18;2.05;;;3.70;99.90;;;;;;5004639;28;20052;-74
2023/11/26 06:49:20;;;;;;;14.18;2.92;;;3.70;99.90;;;;;;4989782;28;20768;-76
2023/11/26 06:51:46;;;;;;;14.25;2.30;;;3.70;99.90;;;;;;4993518;28;20463;-76
2023/11/26 06:54:11;;;;;;;12.00;2.00;;;3.80;99.90;;;;;;5002530;28;20049;-76
2023/11/26 06:56:37;;;;;;;15.98;2.25;;;3.80;99.90;;;;;;5008548;28;20110;-76
2023/11/26 06:59:03;;;;;;;13.70;2.00;;;3.80;99.90;;;;;;5000055;28;20052;-76
2023/11/26 07:01:31;;;;;;;13.57;2.50;;;3.80;99.90;;;;;;4989208;28;20069;-76
2023/11/26 07:03:56;;;;;;;14.45;2.60;;;3.80;99.90;;;;;;5000245;28;20053;-76
2023/11/26 07:06:22;;;;;;;9.80;2.38;;;3.80;99.90;;;;;;5000690;28;20056;-76
2023/11/26 07:08:48;;;;;;;14.75;2.72;;;3.80;99.90;;;;;;5002694;28;20449;-76
2023/11/26 07:11:19;;;;;;;13.75;2.35;;;3.80;99.90;;;;;;5007936;28;20120;-76
2023/11/26 07:13:45;;;;;;;;;;;3.70;99.90;;;;;;5004430;28;20072;-76
2023/11/26 07:16:11;;;;;;;12.95;5.68;;;3.70;99.90;;;;;;5007815;28;19932;-76
2023/11/26 07:18:38;;;;;;;10.93;2.92;;;3.80;99.90;;;;;;4990161;28;20046;-76
2023/11/26 07:21:05;;;;;;;11.02;2.60;;;3.90;99.90;;;;;;5007746;28;20061;-76
2023/11/26 07:23:31;;;;;;;20.17;3.70;;;3.90;99.90;;;;;;5013960;28;20044;-76
2023/11/26 07:25:57;;;;;;;19.20;8.52;;;4.00;99.90;;;;;;5006426;28;20068;-76
2023/11/26 07:28:24;;;;;;;14.98;6.35;;;3.90;99.90;;;;;;5009148;28;20037;-74
2023/11/26 07:30:50;;;;;;;13.73;4.28;;;3.90;99.90;;;;;;4991159;28;20041;-74
2023/11/26 07:33:16;;;;;;;12.20;3.15;;;3.90;99.90;;;;;;5008942;28;20514;-74
2023/11/26 07:35:44;;;;;;;12.80;3.38;;;4.00;99.90;;;;;;5009888;28;20037;-73
2023/11/26 07:38:10;;;;;;;13.95;3.50;;;3.90;99.90;;;;;;4992771;28;20049;-73
2023/11/26 07:40:39;;;;;;;10.60;2.97;;;4.00;99.90;;;;;;4991458;28;20042;-76
2023/11/26 07:43:05;;;;;;;10.25;2.72;;;4.00;99.90;;;;;;5004642;28;20034;-76
2023/11/26 07:45:31;;;;;;;13.73;2.72;;;4.00;99.90;;;;;;5007016;28;20045;-73
2023/11/26 07:47:57;;;;;;;10.75;2.70;;;4.00;99.90;;;;;;5008553;28;20455;-74
2023/11/26 07:50:23;;;;;;;14.80;3.08;;;4.10;99.90;;;;;;5006755;28;20060;-73
2023/11/26 07:52:49;;;;;;;10.85;2.35;;;4.10;99.90;;;;;;5009524;28;20092;-73
2023/11/26 07:55:15;;;;;;;11.65;3.42;;;4.10;99.90;;;;;;5010426;28;20060;-74
2023/11/26 07:57:42;;;;;;;16.80;3.63;;;4.10;99.90;;;;;;5012993;28;20037;-74
2023/11/26 08:00:13;;;;;;;12.55;3.28;;;4.10;99.90;;;;;;5010937;28;20422;-74
2023/11/26 08:02:40;;;;;;;14.23;2.72;;;4.10;99.90;;;;;;5009369;28;20056;-74
2023/11/26 08:05:11;;;;;;;16.50;2.90;;;4.20;99.90;;;;;;5010711;28;20053;-74
2023/11/26 08:07:36;;;;;;;13.27;2.63;;;4.20;99.90;;;;;;5012540;28;20049;-74
2023/11/26 08:10:10;;;;;;;14.48;3.70;;;4.20;99.90;;;;;;4994868;28;20103;-74
2023/11/26 08:12:39;;;;;;;8.75;3.22;;;4.20;99.90;;;;;;4992840;28;20037;-74
2023/11/26 08:15:19;;;;;;;28.35;11.40;;;4.30;99.90;;;;;;5003477;28;20046;-74
2023/11/26 08:17:48;;;;;;;16.10;5.15;;;4.30;99.90;;;;;;5007352;28;20096;-74
2023/11/26 08:20:15;;;;;;;13.40;2.97;;;4.30;99.90;;;;;;5011018;28;20041;-74
2023/11/26 08:22:45;;;;;;;13.55;3.75;;;4.30;99.90;;;;;;5005923;28;20056;-74
2023/11/26 08:25:13;;;;;;;15.00;2.67;;;4.30;99.90;;;;;;5009326;28;20049;-74
2023/11/26 08:27:39;;;;;;;14.98;3.08;;;4.30;99.90;;;;;;5007963;28;20038;-74
2023/11/26 08:30:13;;;;;;;8.77;2.17;;;4.30;99.90;;;;;;4990580;28;20124;-74
2023/11/26 08:32:50;;;;;;;10.52;2.33;;;4.30;99.90;;;;;;4997659;28;20157;-74
2023/11/26 08:35:16;;;;;;;17.50;3.08;;;4.30;99.90;;;;;;5006261;28;20053;-74
2023/11/26 08:37:45;;;;;;;18.33;3.65;;;4.30;99.90;;;;;;5010264;28;20037;-74
2023/11/26 08:40:14;;;;;;;11.82;2.72;;;4.30;99.90;;;;;;5010546;28;20555;-74
2023/11/26 08:42:43;;;;;;;14.73;2.97;;;4.30;99.90;;;;;;5002944;28;20124;-76
2023/11/26 08:45:09;;;;;;;16.75;2.85;;;4.30;99.90;;;;;;4989522;28;20052;-76
2023/11/26 08:47:35;;;;;;;11.82;2.78;;;4.40;99.90;;;;;;5006461;28;20037;-76
2023/11/26 08:50:02;;;;;;;8.73;2.50;;;4.40;99.90;;;;;;4989962;28;20049;-75
2023/11/26 08:52:28;;;;;;;13.65;2.80;;;4.50;99.90;;;;;;5010429;28;20045;-76
2023/11/26 08:54:55;;;;;;;14.95;2.70;;;4.50;99.90;;;;;;4991337;28;20048;-76
2023/11/26 08:57:21;;;;;;;12.13;2.28;;;4.50;99.90;;;;;;4986087;28;20106;-78
2023/11/26 08:59:50;;;;;;;11.68;2.33;;;4.50;99.90;;;;;;4995120;28;20037;-77
2023/11/26 09:02:16;;;;;;;11.38;2.03;;;4.60;99.90;;;;;;5003578;28;20112;-78
2023/11/26 09:04:42;;;;;;;14.00;2.30;;;4.70;99.90;;;;;;4999391;28;20045;-77
2023/11/26 09:07:08;;;;;;;10.85;2.08;;;4.70;99.90;;;;;;4994626;28;20048;-77
2023/11/26 09:09:33;;;;;;;10.30;2.45;;;4.80;99.90;;;;;;5004243;28;20042;-78
2023/11/26 09:11:59;;;;;;;13.80;2.15;;;4.90;99.90;;;;;;4984499;28;20124;-77
2023/11/26 09:14:25;;;;;;;8.85;2.03;;;4.90;99.90;;;;;;4990543;28;20287;-77
2023/11/26 09:16:52;;;;;;;11.00;3.20;;;5.00;99.90;;;;;;5004921;28;20416;-77
2023/11/26 09:19:18;;;;;;;9.65;1.77;;;5.00;99.90;;;;;;4991236;28;20060;-77
2023/11/26 09:21:49;;;;;;;9.98;2.15;;;5.00;99.90;;;;;;4988043;28;20045;-77
2023/11/26 09:24:16;;;;;;;9.68;2.17;;;5.00;99.90;;;;;;5002832;28;20128;-77
2023/11/26 09:26:43;;;;;;;15.15;2.17;;;5.10;99.90;;;;;;4999176;28;20650;-81
2023/11/26 09:29:09;;;;;;;7.13;1.65;;;5.10;99.90;;;;;;4996708;28;20041;-78
2023/11/26 09:31:41;;;;;;;10.68;1.92;;;5.20;99.90;;;;;;5006033;28;20504;-77
2023/11/26 09:34:07;;;;;;;9.77;2.15;;;5.20;99.90;;;;;;5012061;28;20132;-80
2023/11/26 09:36:33;;;;;;;12.25;2.20;;;5.30;99.90;;;;;;5018525;28;20140;-80
2023/11/26 09:38:59;;;;;;;11.95;3.20;;;5.30;99.90;;;;;;5001394;28;20050;-81
2023/11/26 09:41:25;;;;;;;15.73;3.22;;;5.30;99.90;;;;;;4991098;28;20159;-78
2023/11/26 09:43:54;;;;;;;10.38;3.60;;;5.40;99.90;;;;;;5005473;28;20568;-79
2023/11/26 09:46:21;;;;;;;10.30;3.50;;;5.40;99.90;;;;;;5010509;28;20499;-78
2023/11/26 09:48:49;;;;;;;15.65;3.90;;;5.40;99.90;;;;;;4991383;28;20103;-78
2023/11/26 09:51:16;;;;;;;15.60;6.78;;;5.40;99.90;;;;;;5005842;28;20046;-78
2023/11/26 09:53:43;;;;;;;15.82;5.40;;;5.40;99.90;;;;;;4989931;28;20088;-80
2023/11/26 09:56:10;;;;;;;13.23;3.75;;;5.40;99.90;;;;;;4999906;28;20046;-78
2023/11/26 09:58:39;;;;;;;12.32;3.60;;;5.40;99.90;;;;;;5003089;28;20685;-78
2023/11/26 10:01:10;;;;;;;24.55;4.10;;;5.40;99.90;;;;;;4994636;28;20050;-78
2023/11/26 10:03:59;;;;;;;12.05;3.53;;;5.50;99.90;;;;;;5007632;28;20047;-78
2023/11/26 10:06:26;;;;;;;17.55;3.20;;;5.50;99.90;;;;;;4982506;28;20124;-79
2023/11/26 10:08:54;;;;;;;17.88;3.70;;;5.50;99.90;;;;;;4985756;28;20475;-80
2023/11/26 10:11:25;;;;;;;12.57;3.35;;;5.60;99.90;;;;;;5003757;28;20125;-80
2023/11/26 10:13:52;;;;;;;12.77;3.42;;;5.60;99.90;;;;;;5006129;28;20034;-80
2023/11/26 10:16:33;;;;;;;14.93;3.50;;;5.60;99.90;;;;;;5000153;28;20488;-81
2023/11/26 10:19:03;;;;;;;16.02;3.72;;;5.60;99.90;;;;;;5001478;28;20049;-81
2023/11/26 10:21:30;;;;;;;12.82;2.92;;;5.60;99.90;;;;;;5005995;28;20089;-81
2023/11/26 10:24:01;;;;;;;14.30;3.47;;;5.60;99.90;;;;;;4983647;28;20133;-80
2023/11/26 10:26:27;;;;;;;12.68;2.85;;;5.60;99.90;;;;;;5008253;28;20514;-80
2023/11/26 10:29:03;;;;;;;19.48;4.43;;;5.70;99.90;;;;;;5008680;28;20099;-80
2023/11/26 10:31:29;;;;;;;18.85;3.90;;;5.70;99.90;;;;;;4986257;28;20041;-80
2023/11/26 10:34:13;;;;;;;12.38;3.67;;;5.60;99.90;;;;;;4988580;28;20061;-80
2023/11/26 10:36:38;;;;;;;12.70;3.55;;;5.70;99.90;;;;;;5005788;28;20496;-80
2023/11/26 10:39:04;;;;;;;15.18;3.50;;;5.70;99.90;;;;;;4990503;28;20057;-81
2023/11/26 10:41:34;;;;;;;22.52;4.63;;;5.70;99.90;;;;;;4988036;28;20034;-81
2023/11/26 10:44:00;;;;;;;14.75;4.28;;;5.80;99.90;;;;;;5006242;28;20061;-80
2023/11/26 10:46:26;;;;;;;15.82;3.00;;;5.80;99.90;;;;;;4993530;28;20585;-80
2023/11/26 10:48:59;;;;;;;19.33;4.35;;;5.80;99.90;;;;;;5004095;28;20049;-80
2023/11/26 10:51:27;;;;;;;20.88;4.00;;;5.80;99.90;;;;;;5012344;28;20103;-81
2023/11/26 10:53:57;;;;;;;19.58;4.28;;;5.90;99.90;;;;;;4980078;28;20049;-80
2023/11/26 10:56:32;;;;;;;16.77;3.50;;;5.90;99.90;;;;;;5013027;28;20072;-80
2023/11/26 10:58:58;;;;;;;20.65;3.70;;;6.00;99.90;;;;;;4987240;28;20072;-80
2023/11/26 11:01:24;;;;;;;15.15;3.63;;;6.00;99.90;;;;;;5007712;28;20057;-80
2023/11/26 11:03:52;;;;;;;12.10;3.47;;;6.10;99.90;;;;;;5008149;28;20045;-80
2023/11/26 11:06:20;;;;;;;16.88;4.18;;;6.10;99.90;;;;;;4991821;28;20110;-80
2023/11/26 11:08:46;;;;;;;19.27;4.50;;;6.10;99.90;;;;;;5005165;28;20055;-80
2023/11/26 11:11:31;;;;;;;17.70;3.58;;;6.20;99.90;;;;;;4987224;28;20053;-80
2023/11/26 11:13:57;;;;;;;15.68;3.70;;;6.20;99.90;;;;;;4994233;28;20191;-80
2023/11/26 11:16:24;;;;;;;11.25;3.40;;;6.30;99.90;;;;;;5004352;28;20049;-80
2023/11/26 11:18:50;;;;;;;19.85;4.32;;;6.30;99.90;;;;;;5009760;28;20067;-80
2023/11/26 11:21:18;;;;;;;19.50;4.72;;;6.30;99.90;;;;;;4989970;28;20037;-81
2023/11/26 11:23:53;;;;;;;15.32;3.80;;;6.40;99.90;;;;;;5007306;28;20064;-81
2023/11/26 11:26:25;;;;;;;15.77;3.67;;;6.40;99.90;;;;;;4997788;28;20099;-80
2023/11/26 11:28:53;;;;;;;12.70;3.30;;;6.40;99.90;;;;;;4988305;28;20642;-80
2023/11/26 11:31:48;;;;;;;18.10;4.20;;;6.50;99.90;;;;;;4995449;28;20057;-80
2023/11/26 11:34:20;;;;;;;14.57;3.20;;;6.50;99.90;;;;;;5002522;28;20115;-80
2023/11/26 11:36:50;;;;;;;15.68;3.78;;;6.60;99.90;;;;;;4985962;28;20404;-80
2023/11/26 11:39:21;;;;;;;17.17;3.92;;;6.60;99.90;;;;;;5006204;28;20076;-80
2023/11/26 11:41:56;;;;;;;15.70;3.72;;;6.60;99.90;;;;;;4995246;28;20527;-80
2023/11/26 11:44:43;;;;;;;13.23;3.97;;;6.70;99.90;;;;;;5011980;28;20052;-80
2023/11/26 11:47:32;;;;;;;12.35;3.55;;;6.70;99.90;;;;;;5006390;28;20049;-80
2023/11/26 11:50:00;;;;;;;10.43;3.13;;;6.80;99.90;;;;;;4998599;28;20057;-80
2023/11/26 11:52:26;;;;;;;14.77;3.72;;;6.70;99.90;;;;;;5009943;28;20049;-80
2023/11/26 11:54:55;;;;;;;9.32;3.10;;;6.80;99.90;;;;;;5002443;28;20072;-80
2023/11/26 11:57:26;;;;;;;10.00;2.90;;;6.70;99.90;;;;;;5006665;28;20285;-80
2023/11/26 11:59:53;;;;;;;14.98;3.10;;;6.80;99.90;;;;;;4984513;28;20492;-80
2023/11/26 12:02:24;;;;;;;8.55;2.60;;;6.80;99.90;;;;;;5010849;28;20152;-79
2023/11/26 12:04:51;;;;;;;14.70;2.72;;;6.80;99.90;;;;;;4991328;28;20108;-79
2023/11/26 12:07:19;;;;;;;12.30;3.13;;;6.80;99.90;;;;;;5008764;28;20045;-79
2023/11/26 12:09:46;;;;;;;7.28;2.22;;;6.80;99.90;;;;;;4996816;28;20041;-79
2023/11/26 12:12:18;;;;;;;15.77;2.80;;;6.90;99.90;;;;;;4993627;28;20049;-79
2023/11/26 12:14:44;;;;;;;11.80;3.15;;;6.90;99.90;;;;;;5014148;28;20053;-79
2023/11/26 12:17:15;;;;;;;13.40;2.83;;;6.90;99.90;;;;;;4995629;28;20049;-79
2023/11/26 12:19:42;;;;;;;29.77;3.03;;;7.00;99.90;;;;;;4993132;28;20045;-78
2023/11/26 12:22:10;;;;;;;11.15;2.92;;;7.10;99.90;;;;;;4991254;28;20139;-79
2023/11/26 12:24:37;;;;;;;10.50;2.38;;;7.00;99.90;;;;;;5007731;28;20132;-79
2023/11/26 12:27:04;;;;;;;10.05;2.47;;;7.00;99.90;;;;;;4989628;28;20484;-79
2023/11/26 12:29:32;;;;;;;9.27;2.28;;;7.00;99.90;;;;;;5004576;28;20065;-79
2023/11/26 12:32:05;;;;;;;9.77;1.95;;;7.10;99.90;;;;;;4989462;28;20451;-79
2023/11/26 12:34:38;;;;;;;10.05;1.90;;;7.10;99.90;;;;;;4988839;28;20389;-79
2023/11/26 12:37:12;;;;;;;10.82;2.00;;;7.00;99.90;;;;;;5004701;28;20140;-79
2023/11/26 12:39:41;;;;;;;11.23;2.13;;;7.10;99.90;;;;;;4996428;28;20053;-79
2023/11/26 12:42:07;;;;;;;9.85;1.77;;;7.10;99.90;;;;;;4993050;28;20037;-79
2023/11/26 12:44:33;;;;;;;5.97;1.40;;;7.10;99.90;;;;;;5007333;28;20057;-79
2023/11/26 12:47:12;;;;;;;10.98;2.25;;;7.10;99.90;;;;;;4982297;28;20060;-79
2023/11/26 12:49:39;;;;;;;6.22;1.67;;;7.10;99.90;;;;;;4995247;28;20056;-79
2023/11/26 12:52:10;;;;;;;7.65;1.50;;;7.10;99.90;;;;;;4992074;28;20065;-79